Hegina — 3ETX2 — position and weather

sailwx.info

Track history (hours):
 
Tides and Currents Weather Stations Pressure Air Temp Water Temp Dewpoint Dewpoint Depression Visibility Wind Speed Wind Dir Waves Ship Positions

Hegina

Last reported at 2014-Sep-19 15:06 UTC. Time now 2014-Sep-19 15:47 UTC.
Position N 53°34' E 014°35'.

Length 138 m; draft 8.3 m.

Type: Cargo ship. MMSI: 372427000.

Date/timePositionNaut miles runAvg speedWind from/ knotsBaromVisibWave heightAir tempDewpointWater temp
2014-Sep-19 15:06N 53°34' E 014°35'0 0.0
2014-Sep-19 14:30N 53°34' E 014°35'0 0.0
2014-Sep-19 13:24N 53°34' E 014°35'0 0.0
2014-Sep-19 12:33N 53°34' E 014°35'0 0.0
2014-Sep-19 11:33N 53°34' E 014°35'0 0.0
2014-Sep-19 10:33N 53°34' E 014°35'0 0.0
2014-Sep-19 09:12N 53°34' E 014°35'0 0.0
2014-Sep-19 08:30N 53°34' E 014°35'0 0.0
2014-Sep-19 07:30N 53°34' E 014°35'0 0.0
2014-Sep-19 06:30N 53°34' E 014°35'0 0.0
2014-Sep-19 05:27N 53°34' E 014°35'0 0.0
2014-Sep-19 04:30N 53°34' E 014°35'0 0.0
2014-Sep-19 03:18N 53°34' E 014°35'0 0.0
2014-Sep-19 02:18N 53°34' E 014°35'0 0.0
2014-Sep-19 01:33N 53°34' E 014°35'0 0.0
2014-Sep-19 00:32N 53°34' E 014°35'0 0.0
2014-Sep-18 23:33N 53°34' E 014°35'0 0.0
2014-Sep-18 22:17N 53°34' E 014°35'0 0.0
2014-Sep-18 21:33N 53°34' E 014°35'0 0.0
2014-Sep-18 20:32N 53°34' E 014°35'0 0.0
2014-Sep-18 19:32N 53°34' E 014°35'0 0.0
2014-Sep-18 18:24N 53°34' E 014°35'0 0.0
2014-Sep-18 17:32N 53°34' E 014°35'0 0.0
2014-Sep-18 16:32N 53°34' E 014°35'0 0.0
2014-Sep-18 15:32N 53°34' E 014°35'0 0.0
2014-Sep-18 14:32N 53°34' E 014°35'0 0.0
2014-Sep-18 13:32N 53°34' E 014°35'0 0.0
2014-Sep-18 12:32N 53°34' E 014°35'0 0.0
2014-Sep-18 11:32N 53°34' E 014°35'0 0.3
2014-Sep-18 10:34N 53°34' E 014°36'6 5.7
2014-Sep-18 09:34N 53°39' E 014°33'8 8.2
2014-Sep-18 08:34N 53°46' E 014°24'8 7.8
2014-Sep-18 07:34N 53°52' E 014°17'7 6.9
2014-Sep-18 06:34N 53°59' E 014°16'4 4.5
2014-Sep-18 05:33N 54°03' E 014°13'10 9.5
2014-Sep-18 04:34N 54°12' E 014°07'1 1.5
2014-Sep-18 03:33N 54°12' E 014°09'1010.4
2014-Sep-18 02:33N 54°20' E 013°57'1212.3
2014-Sep-18 01:33N 54°31' E 013°47'1212.4
2014-Sep-18 00:33N 54°41' E 013°36'1111.0
2014-Sep-17 23:32N 54°45' E 013°18'1212.4
2014-Sep-17 22:33N 54°46' E 012°57'1411.5
2014-Sep-17 21:18N 54°41' E 012°34'911.7
2014-Sep-17 20:33N 54°36' E 012°21'1111.2
2014-Sep-17 19:33N 54°26' E 012°13'1110.6
2014-Sep-17 18:33N 54°25' E 011°55'1111.0
2014-Sep-17 17:33N 54°28' E 011°36'1111.3
2014-Sep-17 16:33N 54°33' E 011°19'1110.6
2014-Sep-17 15:33N 54°38' E 011°03'8410.1
2014-Sep-17 07:18N 56°01' E 011°05'1412.1
2014-Sep-17 06:06N 56°13' E 011°19'712.2
2014-Sep-17 05:33N 56°19' E 011°25'1312.3
2014-Sep-17 04:30N 56°30' E 011°36'1212.5
2014-Sep-17 03:33N 56°41' E 011°47'1111.1
2014-Sep-17 02:33N 56°52' E 011°47'1212.4
2014-Sep-17 01:33N 57°04' E 011°40'1212.0
2014-Sep-17 00:33N 57°15' E 011°32'1211.9
2014-Sep-16 23:33N 57°26' E 011°25'1211.7
2014-Sep-16 22:33N 57°34' E 011°10'1212.4
2014-Sep-16 21:33N 57°43' E 010°52'28411.8
2014-Sep-15 21:32N 54°17' E 005°05'1313.1
2014-Sep-15 20:33N 54°06' E 004°53'1313.1
2014-Sep-15 19:32N 53°52' E 004°52'1312.7
2014-Sep-15 18:29N 53°39' E 004°51'1112.0
2014-Sep-15 17:33N 53°29' E 004°44'2711.4
2014-Sep-15 15:14N 53°04' E 004°26'3211.5
2014-Sep-15 12:30N 52°38' E 003°58'1311.8
2014-Sep-15 11:23N 52°29' E 003°42'1112.2
2014-Sep-15 10:29N 52°21' E 003°29'5313.5
2014-Sep-15 06:32N 51°42' E 002°32'1514.4
2014-Sep-15 05:32N 51°30' E 002°17'1313.7
2014-Sep-15 04:34N 51°18' E 002°07'1413.9
2014-Sep-15 03:34N 51°08' E 001°52'1514.7
2014-Sep-15 02:33N 50°59' E 001°34'3812.7
2014-Sep-14 23:33N 50°29' E 000°56'1312.7
2014-Sep-14 22:33N 50°26' E 000°36'50611.7
2014-Sep-13 03:10N 44°46' W 008°40'42612.6
2014-Sep-11 17:21N 37°45' W 010°06'  
Track history (hours):
 
Tides and Currents Weather Stations Pressure Air Temp Water Temp Dewpoint Dewpoint Depression Visibility Wind Speed Wind Dir Waves Ship Positions

Hegina

Last reported at 2014-Sep-19 15:06 UTC. Time now 2014-Sep-19 15:47 UTC.
Position N 53°34' E 014°35'.

Length 138 m; draft 8.3 m.

Type: Cargo ship. MMSI: 372427000.

Date/timePositionNaut miles runAvg speedWind from/ knotsBaromVisibWave heightAir tempDewpointWater temp
2014-Sep-19 15:06N 53°34' E 014°35'0 0.0
2014-Sep-19 14:30N 53°34' E 014°35'0 0.0
2014-Sep-19 13:24N 53°34' E 014°35'0 0.0
2014-Sep-19 12:33N 53°34' E 014°35'0 0.0
2014-Sep-19 11:33N 53°34' E 014°35'0 0.0
2014-Sep-19 10:33N 53°34' E 014°35'0 0.0
2014-Sep-19 09:12N 53°34' E 014°35'0 0.0
2014-Sep-19 08:30N 53°34' E 014°35'0 0.0
2014-Sep-19 07:30N 53°34' E 014°35'0 0.0
2014-Sep-19 06:30N 53°34' E 014°35'0 0.0
2014-Sep-19 05:27N 53°34' E 014°35'0 0.0
2014-Sep-19 04:30N 53°34' E 014°35'0 0.0
2014-Sep-19 03:18N 53°34' E 014°35'0 0.0
2014-Sep-19 02:18N 53°34' E 014°35'0 0.0
2014-Sep-19 01:33N 53°34' E 014°35'0 0.0
2014-Sep-19 00:32N 53°34' E 014°35'0 0.0
2014-Sep-18 23:33N 53°34' E 014°35'0 0.0
2014-Sep-18 22:17N 53°34' E 014°35'0 0.0
2014-Sep-18 21:33N 53°34' E 014°35'0 0.0
2014-Sep-18 20:32N 53°34' E 014°35'0 0.0
2014-Sep-18 19:32N 53°34' E 014°35'0 0.0
2014-Sep-18 18:24N 53°34' E 014°35'0 0.0
2014-Sep-18 17:32N 53°34' E 014°35'0 0.0
2014-Sep-18 16:32N 53°34' E 014°35'0 0.0
2014-Sep-18 15:32N 53°34' E 014°35'0 0.0
2014-Sep-18 14:32N 53°34' E 014°35'0 0.0
2014-Sep-18 13:32N 53°34' E 014°35'0 0.0
2014-Sep-18 12:32N 53°34' E 014°35'0 0.0
2014-Sep-18 11:32N 53°34' E 014°35'0 0.3
2014-Sep-18 10:34N 53°34' E 014°36'6 5.7
2014-Sep-18 09:34N 53°39' E 014°33'8 8.2
2014-Sep-18 08:34N 53°46' E 014°24'8 7.8
2014-Sep-18 07:34N 53°52' E 014°17'7 6.9
2014-Sep-18 06:34N 53°59' E 014°16'4 4.5
2014-Sep-18 05:33N 54°03' E 014°13'10 9.5
2014-Sep-18 04:34N 54°12' E 014°07'1 1.5
2014-Sep-18 03:33N 54°12' E 014°09'1010.4
2014-Sep-18 02:33N 54°20' E 013°57'1212.3
2014-Sep-18 01:33N 54°31' E 013°47'1212.4
2014-Sep-18 00:33N 54°41' E 013°36'1111.0
2014-Sep-17 23:32N 54°45' E 013°18'1212.4
2014-Sep-17 22:33N 54°46' E 012°57'1411.5
2014-Sep-17 21:18N 54°41' E 012°34'911.7
2014-Sep-17 20:33N 54°36' E 012°21'1111.2
2014-Sep-17 19:33N 54°26' E 012°13'1110.6
2014-Sep-17 18:33N 54°25' E 011°55'1111.0
2014-Sep-17 17:33N 54°28' E 011°36'1111.3
2014-Sep-17 16:33N 54°33' E 011°19'1110.6
2014-Sep-17 15:33N 54°38' E 011°03'8410.1
2014-Sep-17 07:18N 56°01' E 011°05'1412.1
2014-Sep-17 06:06N 56°13' E 011°19'712.2
2014-Sep-17 05:33N 56°19' E 011°25'1312.3
2014-Sep-17 04:30N 56°30' E 011°36'1212.5
2014-Sep-17 03:33N 56°41' E 011°47'1111.1
2014-Sep-17 02:33N 56°52' E 011°47'1212.4
2014-Sep-17 01:33N 57°04' E 011°40'1212.0
2014-Sep-17 00:33N 57°15' E 011°32'1211.9
2014-Sep-16 23:33N 57°26' E 011°25'1211.7
2014-Sep-16 22:33N 57°34' E 011°10'1212.4
2014-Sep-16 21:33N 57°43' E 010°52'28411.8
2014-Sep-15 21:32N 54°17' E 005°05'1313.1
2014-Sep-15 20:33N 54°06' E 004°53'1313.1
2014-Sep-15 19:32N 53°52' E 004°52'1312.7
2014-Sep-15 18:29N 53°39' E 004°51'1112.0
2014-Sep-15 17:33N 53°29' E 004°44'2711.4
2014-Sep-15 15:14N 53°04' E 004°26'3211.5
2014-Sep-15 12:30N 52°38' E 003°58'1311.8
2014-Sep-15 11:23N 52°29' E 003°42'1112.2
2014-Sep-15 10:29N 52°21' E 003°29'5313.5
2014-Sep-15 06:32N 51°42' E 002°32'1514.4
2014-Sep-15 05:32N 51°30' E 002°17'1313.7
2014-Sep-15 04:34N 51°18' E 002°07'1413.9
2014-Sep-15 03:34N 51°08' E 001°52'1514.7
2014-Sep-15 02:33N 50°59' E 001°34'3812.7
2014-Sep-14 23:33N 50°29' E 000°56'1312.7
2014-Sep-14 22:33N 50°26' E 000°36'50611.7
2014-Sep-13 03:10N 44°46' W 008°40'42612.6
2014-Sep-11 17:21N 37°45' W 010°06'  

Dump ship's entire track history